Last 48 Hours

Stanford Met Tower

Hourly Data | America/Los_Angeles
as of 11/27/22 11:54 PM PST
Date & Time Temp (°F) WindChill (°F) RH (%) Dew Pt (°F) Wind Dir (°) Wind Spd (mph) Wind Gust (mph) Solar Rad (W/m2) Pressure (mb) NowCast AQI Value (AQI) NowCast AQI Status Latest Rain (In) Daily Rain (In) Daily Min Temp (°F) Daily Max Temp (°F)
11/27/22 - 2300 41.8 - 89 38.9 SW | 215 1.6 4.6 0 1,020.1 35 Good 0.00 0.00 35.1 68.9
11/27/22 - 2200 43.5 41.5 88 40.4 SSW | 195 3.9 7.6 0 1,020.2 39 Good 0.00 0.00 35.1 68.9
11/27/22 - 2100 44.6 42.0 88 41.2 SSW | 207 4.8 7.3 0 1,020.4 41 Good 0.00 0.00 35.1 68.9
11/27/22 - 2000 46.5 - 87 42.9 WSW | 247 2.5 6.5 0 1,020.2 46 Good 0.00 0.00 35.1 68.9
11/27/22 - 1900 48.9 - 85 44.5 WSW | 254 3.2 7.0 0 1,020.2 48 Good 0.00 0.00 35.1 68.9
11/27/22 - 1800 51.5 - 80 45.7 SW | 235 2.1 6.5 0 1,020.0 46 Good 0.00 0.00 35.1 68.9
11/27/22 - 1700 57.4 - 68 46.8 N | 1 1.8 4.2 25 1,020.0 42 Good 0.00 0.00 35.1 68.9
11/27/22 - 1600 61.1 - 60 47.1 N | 352 3.8 8.8 112 1,020.2 38 Good 0.00 0.00 35.1 68.9
11/27/22 - 1500 63.4 - 50 44.6 N | 0 4.9 10.4 264 1,020.2 25 Good 0.00 0.00 35.1 68.9
11/27/22 - 1400 68.0 - 33 37.8 NE | 37 0.6 6.2 359 1,020.1 15 Good 0.00 0.00 35.1 68.9
11/27/22 - 1300 66.4 - 37 39.1 N | 359 0.7 3.2 515 1,021.0 20 Good 0.00 0.00 35.1 67.8
11/27/22 - 1200 61.9 - 47 41.4 NNW | 339 1.6 5.3 453 1,022.2 27 Good 0.00 0.00 35.1 64.1
11/27/22 - 1100 58.0 - 54 41.3 ENE | 75 1.6 3.8 405 1,023.3 29 Good 0.00 0.00 35.1 61.6
11/27/22 - 1000 52.4 - 64 40.4 E | 96 2.3 5.6 322 1,023.9 22 Good 0.00 0.00 35.1 55.7
11/27/22 - 0900 42.6 - 81 37.2 S | 169 3.4 7.2 136 1,024.1 19 Good 0.00 0.00 35.1 47.2
11/27/22 - 0800 36.6 34.5 89 33.6 SSW | 206 3.1 6.3 30 1,024.1 24 Good 0.00 0.00 35.1 41.4
11/27/22 - 0700 37.9 34.2 86 34.1 SW | 220 4.7 9.9 1 1,023.5 31 Good 0.00 0.00 35.1 41.4
11/27/22 - 0600 36.8 32.4 88 33.8 SSW | 209 5.5 8.4 0 1,023.3 22 Good 0.00 0.00 35.1 41.4
11/27/22 - 0500 35.8 32.4 91 33.4 SSW | 211 4.1 8.6 0 1,023.6 27 Good 0.00 0.00 35.1 41.4
11/27/22 - 0400 36.6 33.7 89 33.7 WSW | 239 3.7 7.0 0 1,023.6 32 Good 0.00 0.00 35.1 41.4
11/27/22 - 0300 37.2 33.6 89 34.4 SW | 219 4.5 7.3 0 1,023.5 35 Good 0.00 0.00 36.4 41.4
11/27/22 - 0200 37.7 35.5 88 34.4 WSW | 247 3.2 5.4 0 1,023.2 37 Good 0.00 0.00 36.4 41.4
11/27/22 - 0100 39.5 36.0 84 35.2 SSW | 203 4.9 8.2 0 1,023.5 39 Good 0.00 0.00 38.2 41.4
11/27/22 - 0000 41.7 38.5 81 36.3 SSW | 200 5.0 8.6 0 1,023.6 41 Good 0.00 0.00 36.8 64.7
11/26/22 - 2300 43.2 40.1 78 36.8 SW | 214 5.3 8.9 0 1,023.7 42 Good 0.00 0.00 36.8 64.7
11/26/22 - 2200 43.8 41.0 76 36.8 SW | 218 5.0 10.6 0 1,023.7 40 Good 0.00 0.00 36.8 64.7
11/26/22 - 2100 44.1 41.2 75 36.5 SW | 214 5.1 8.8 0 1,023.7 36 Good 0.00 0.00 36.8 64.7
11/26/22 - 2000 45.9 - 69 36.5 SW | 223 4.0 7.2 0 1,023.2 31 Good 0.00 0.00 36.8 64.7
11/26/22 - 1900 48.7 - 65 37.4 SW | 225 3.7 7.6 0 1,022.7 28 Good 0.00 0.00 36.8 64.7
11/26/22 - 1800 51.8 - 60 38.6 SW | 226 4.5 8.3 0 1,022.1 30 Good 0.00 0.00 36.8 64.7
11/26/22 - 1700 59.0 - 48 39.1 NW | 310 1.7 3.5 40 1,021.9 34 Good 0.00 0.00 36.8 64.7
11/26/22 - 1600 63.1 - 39 37.8 N | 357 3.5 7.7 203 1,022.1 33 Good 0.00 0.00 36.8 64.7
11/26/22 - 1500 63.9 - 38 37.8 N | 9 4.4 8.8 361 1,022.2 31 Good 0.00 0.00 36.8 64.7
11/26/22 - 1400 63.0 - 47 42.3 NNW | 345 4.0 9.1 479 1,022.6 30 Good 0.00 0.00 36.8 64.6
11/26/22 - 1300 61.9 - 51 43.5 N | 5 3.4 8.5 542 1,023.3 36 Good 0.00 0.00 36.8 63.2
11/26/22 - 1200 59.1 - 60 45.1 W | 274 1.6 5.8 544 1,024.6 40 Good 0.00 0.00 36.8 61.6
11/26/22 - 1100 56.4 - 67 45.4 ENE | 74 1.5 4.8 480 1,026.0 41 Good 0.00 0.00 36.8 58.3
11/26/22 - 1000 52.0 - 79 45.7 NE | 35 2.8 6.3 337 1,026.5 36 Good 0.00 0.00 36.8 54.6
11/26/22 - 0900 45.0 42.7 81 39.6 SSW | 193 4.5 7.6 119 1,026.5 29 Good 0.00 0.00 36.8 49.9
11/26/22 - 0800 40.5 - 80 34.9 WSW | 253 2.8 5.7 22 1,026.6 20 Good 0.00 0.00 36.8 42.5
11/26/22 - 0700 39.2 36.0 81 33.8 SW | 219 4.3 7.8 1 1,026.4 19 Good 0.00 0.00 36.8 42.5
11/26/22 - 0600 38.2 35.6 79 32.3 SSW | 209 3.6 6.8 0 1,026.2 16 Good 0.00 0.00 36.8 42.5
11/26/22 - 0500 38.0 34.8 79 32.3 SW | 215 4.3 8.8 0 1,026.6 17 Good 0.00 0.00 36.8 42.5
11/26/22 - 0400 37.3 35.3 78 31.2 SW | 235 3.0 6.0 0 1,026.9 19 Good 0.00 0.00 37.0 42.5
11/26/22 - 0300 38.0 35.3 78 31.6 WSW | 246 3.7 6.4 0 1,026.8 21 Good 0.00 0.00 37.3 42.5
11/26/22 - 0200 38.1 34.9 78 31.8 WSW | 238 4.3 7.5 0 1,026.2 22 Good 0.00 0.00 37.8 42.5
11/26/22 - 0100 40.6 37.4 71 31.8 S | 190 4.7 8.4 0 1,026.3 25 Good 0.00 0.00 39.1 42.5
11/26/22 - 0000 41.4 37.5 71 32.6 SW | 215 5.9 9.3 0 1,027.0 27 Good 0.00 0.00 35.0 68.0
11/25/22 - 2300 43.4 40.0 67 33.2 SSW | 206 5.6 9.7 0 1,027.4 30 Good 0.00 0.00 35.0 68.0
Max 68.0 42.7 91 47.1 - 5.9 10.6 544 1,027.4 48 - 0.00 0.00 39.1 68.9
Avg 47.8 36.9 71 38.0 - 3.6 7.2 117 1,023.4 31 - 0.00 - - -
Min 35.8 32.4 33 31.2 - 0.6 3.2 0 1,020.0 15 - 0.00 0.00 35.0 41.4
Total - - - - - - - - - - - 0.00 - - -